sensor_id;sensor_type;location;lat;lon;timestamp;P1;durP1;ratioP1;P2;durP2;ratioP2
54430;SDS011;40342;52.998;5.862;2022-09-29T00:00:47;2.08;;;1.58;;
54430;SDS011;40342;52.998;5.862;2022-09-29T00:03:13;1.98;;;1.85;;
54430;SDS011;40342;52.998;5.862;2022-09-29T00:05:45;1.85;;;1.75;;
54430;SDS011;40342;52.998;5.862;2022-09-29T00:08:11;2.22;;;1.50;;
54430;SDS011;40342;52.998;5.862;2022-09-29T00:10:38;1.90;;;1.80;;
54430;SDS011;40342;52.998;5.862;2022-09-29T00:13:04;1.83;;;1.73;;
54430;SDS011;40342;52.998;5.862;2022-09-29T00:15:30;2.10;;;2.00;;
54430;SDS011;40342;52.998;5.862;2022-09-29T00:17:55;2.03;;;1.92;;
54430;SDS011;40342;52.998;5.862;2022-09-29T00:20:21;3.25;;;1.90;;
54430;SDS011;40342;52.998;5.862;2022-09-29T00:22:50;2.53;;;1.88;;
54430;SDS011;40342;52.998;5.862;2022-09-29T00:25:16;4.47;;;2.22;;
54430;SDS011;40342;52.998;5.862;2022-09-29T00:27:43;4.00;;;2.40;;
54430;SDS011;40342;52.998;5.862;2022-09-29T00:30:09;4.93;;;2.70;;
54430;SDS011;40342;52.998;5.862;2022-09-29T00:32:35;2.70;;;2.50;;
54430;SDS011;40342;52.998;5.862;2022-09-29T00:35:00;3.03;;;2.72;;
54430;SDS011;40342;52.998;5.862;2022-09-29T00:37:26;2.55;;;2.35;;
54430;SDS011;40342;52.998;5.862;2022-09-29T00:39:52;2.45;;;2.33;;
54430;SDS011;40342;52.998;5.862;2022-09-29T00:42:18;4.72;;;3.17;;
54430;SDS011;40342;52.998;5.862;2022-09-29T00:47:38;2.92;;;2.70;;
54430;SDS011;40342;52.998;5.862;2022-09-29T00:50:16;2.75;;;2.60;;
54430;SDS011;40342;52.998;5.862;2022-09-29T00:53:14;3.42;;;3.00;;
54430;SDS011;40342;52.998;5.862;2022-09-29T00:55:50;3.25;;;3.05;;
54430;SDS011;40342;52.998;5.862;2022-09-29T00:58:26;4.97;;;3.65;;
54430;SDS011;40342;52.998;5.862;2022-09-29T01:00:56;3.67;;;3.47;;
54430;SDS011;40342;52.998;5.862;2022-09-29T01:03:23;3.92;;;3.42;;
54430;SDS011;40342;52.998;5.862;2022-09-29T01:06:17;3.30;;;3.10;;
54430;SDS011;40342;52.998;5.862;2022-09-29T01:08:58;3.60;;;3.30;;
54430;SDS011;40342;52.998;5.862;2022-09-29T01:11:32;3.67;;;3.47;;
54430;SDS011;40342;52.998;5.862;2022-09-29T01:13:59;3.25;;;3.05;;
54430;SDS011;40342;52.998;5.862;2022-09-29T01:16:29;3.15;;;2.95;;
54430;SDS011;40342;52.998;5.862;2022-09-29T01:18:57;2.70;;;2.50;;
54430;SDS011;40342;52.998;5.862;2022-09-29T01:42:45;3.00;;;2.80;;
54430;SDS011;40342;52.998;5.862;2022-09-29T01:45:25;2.97;;;2.78;;
54430;SDS011;40342;52.998;5.862;2022-09-29T01:48:04;3.22;;;3.03;;
54430;SDS011;40342;52.998;5.862;2022-09-29T01:50:34;3.25;;;3.05;;
54430;SDS011;40342;52.998;5.862;2022-09-29T01:53:08;3.17;;;2.97;;
54430;SDS011;40342;52.998;5.862;2022-09-29T01:55:40;3.63;;;3.40;;
54430;SDS011;40342;52.998;5.862;2022-09-29T01:58:57;3.40;;;3.10;;
54430;SDS011;40342;52.998;5.862;2022-09-29T02:01:06;4.38;;;3.65;;
54430;SDS011;40342;52.998;5.862;2022-09-29T02:03:55;6.20;;;3.97;;
54430;SDS011;40342;52.998;5.862;2022-09-29T02:06:30;5.38;;;3.90;;
54430;SDS011;40342;52.998;5.862;2022-09-29T02:09:02;4.10;;;3.80;;
54430;SDS011;40342;52.998;5.862;2022-09-29T02:11:32;4.82;;;4.43;;
54430;SDS011;40342;52.998;5.862;2022-09-29T02:14:06;4.90;;;3.60;;
54430;SDS011;40342;52.998;5.862;2022-09-29T02:16:42;3.72;;;3.53;;
54430;SDS011;40342;52.998;5.862;2022-09-29T02:19:33;4.20;;;3.55;;
54430;SDS011;40342;52.998;5.862;2022-09-29T02:22:02;3.83;;;3.60;;
54430;SDS011;40342;52.998;5.862;2022-09-29T02:24:28;4.20;;;3.83;;
54430;SDS011;40342;52.998;5.862;2022-09-29T02:26:54;4.15;;;3.28;;
54430;SDS011;40342;52.998;5.862;2022-09-29T02:29:20;3.78;;;3.47;;
54430;SDS011;40342;52.998;5.862;2022-09-29T02:31:46;2.42;;;2.33;;
54430;SDS011;40342;52.998;5.862;2022-09-29T02:34:14;2.53;;;2.42;;
54430;SDS011;40342;52.998;5.862;2022-09-29T02:36:53;1.77;;;1.67;;
54430;SDS011;40342;52.998;5.862;2022-09-29T02:53:42;3.83;;;3.53;;
54430;SDS011;40342;52.998;5.862;2022-09-29T02:56:13;4.15;;;3.85;;
54430;SDS011;40342;52.998;5.862;2022-09-29T02:58:48;4.50;;;4.20;;
54430;SDS011;40342;52.998;5.862;2022-09-29T03:01:20;5.32;;;4.82;;
54430;SDS011;40342;52.998;5.862;2022-09-29T03:03:46;4.93;;;4.50;;
54430;SDS011;40342;52.998;5.862;2022-09-29T03:06:11;5.07;;;4.68;;
54430;SDS011;40342;52.998;5.862;2022-09-29T03:08:38;4.63;;;3.78;;
54430;SDS011;40342;52.998;5.862;2022-09-29T03:11:04;11.57;;;3.50;;
54430;SDS011;40342;52.998;5.862;2022-09-29T03:13:29;5.78;;;3.10;;
54430;SDS011;40342;52.998;5.862;2022-09-29T03:15:55;12.13;;;3.25;;
54430;SDS011;40342;52.998;5.862;2022-09-29T03:18:20;11.02;;;3.30;;
54430;SDS011;40342;52.998;5.862;2022-09-29T03:20:47;8.18;;;3.28;;
54430;SDS011;40342;52.998;5.862;2022-09-29T03:23:13;12.07;;;3.25;;
54430;SDS011;40342;52.998;5.862;2022-09-29T03:25:39;21.35;;;3.72;;
54430;SDS011;40342;52.998;5.862;2022-09-29T03:28:05;13.95;;;3.58;;
54430;SDS011;40342;52.998;5.862;2022-09-29T03:30:31;11.88;;;3.30;;
54430;SDS011;40342;52.998;5.862;2022-09-29T03:32:57;9.25;;;3.47;;
54430;SDS011;40342;52.998;5.862;2022-09-29T03:35:23;56.60;;;4.30;;
54430;SDS011;40342;52.998;5.862;2022-09-29T03:37:48;9.90;;;3.03;;
54430;SDS011;40342;52.998;5.862;2022-09-29T03:40:14;6.38;;;3.05;;
54430;SDS011;40342;52.998;5.862;2022-09-29T03:42:39;4.18;;;2.88;;
54430;SDS011;40342;52.998;5.862;2022-09-29T03:45:05;5.82;;;3.42;;
54430;SDS011;40342;52.998;5.862;2022-09-29T03:47:31;3.75;;;3.22;;
54430;SDS011;40342;52.998;5.862;2022-09-29T03:49:56;5.00;;;2.92;;
54430;SDS011;40342;52.998;5.862;2022-09-29T03:52:22;3.30;;;2.95;;
54430;SDS011;40342;52.998;5.862;2022-09-29T03:54:48;6.97;;;2.90;;
54430;SDS011;40342;52.998;5.862;2022-09-29T03:57:13;4.05;;;2.60;;
54430;SDS011;40342;52.998;5.862;2022-09-29T03:59:39;68.20;;;4.60;;
54430;SDS011;40342;52.998;5.862;2022-09-29T04:02:04;10.68;;;2.95;;
54430;SDS011;40342;52.998;5.862;2022-09-29T04:04:30;6.43;;;2.70;;
54430;SDS011;40342;52.998;5.862;2022-09-29T04:06:56;2.80;;;2.70;;
54430;SDS011;40342;52.998;5.862;2022-09-29T04:09:21;46.85;;;3.30;;
54430;SDS011;40342;52.998;5.862;2022-09-29T04:11:47;10.27;;;2.70;;
54430;SDS011;40342;52.998;5.862;2022-09-29T04:14:13;3.22;;;3.03;;
54430;SDS011;40342;52.998;5.862;2022-09-29T04:16:39;19.42;;;3.05;;
54430;SDS011;40342;52.998;5.862;2022-09-29T04:19:04;2.42;;;2.10;;
54430;SDS011;40342;52.998;5.862;2022-09-29T04:21:30;3.20;;;3.00;;
54430;SDS011;40342;52.998;5.862;2022-09-29T04:23:56;3.13;;;2.92;;
54430;SDS011;40342;52.998;5.862;2022-09-29T04:26:21;3.10;;;2.90;;
54430;SDS011;40342;52.998;5.862;2022-09-29T04:28:47;3.50;;;2.70;;
54430;SDS011;40342;52.998;5.862;2022-09-29T04:31:13;2.60;;;2.40;;
54430;SDS011;40342;52.998;5.862;2022-09-29T04:33:38;4.88;;;2.30;;
54430;SDS011;40342;52.998;5.862;2022-09-29T04:36:05;5.63;;;2.50;;
54430;SDS011;40342;52.998;5.862;2022-09-29T04:38:31;4.40;;;2.20;;
54430;SDS011;40342;52.998;5.862;2022-09-29T04:40:57;14.32;;;2.50;;
54430;SDS011;40342;52.998;5.862;2022-09-29T04:43:22;2.85;;;2.20;;
54430;SDS011;40342;52.998;5.862;2022-09-29T04:45:48;11.07;;;2.85;;
54430;SDS011;40342;52.998;5.862;2022-09-29T04:48:13;18.30;;;2.70;;
54430;SDS011;40342;52.998;5.862;2022-09-29T04:50:39;2.20;;;2.10;;
54430;SDS011;40342;52.998;5.862;2022-09-29T04:53:08;2.67;;;2.35;;
54430;SDS011;40342;52.998;5.862;2022-09-29T04:55:37;3.95;;;2.78;;
54430;SDS011;40342;52.998;5.862;2022-09-29T04:58:03;3.13;;;2.70;;
54430;SDS011;40342;52.998;5.862;2022-09-29T05:00:29;6.00;;;3.03;;
54430;SDS011;40342;52.998;5.862;2022-09-29T05:02:56;9.55;;;3.67;;
54430;SDS011;40342;52.998;5.862;2022-09-29T05:05:22;7.32;;;3.22;;
54430;SDS011;40342;52.998;5.862;2022-09-29T05:07:47;2.95;;;2.75;;
54430;SDS011;40342;52.998;5.862;2022-09-29T05:10:13;7.82;;;3.00;;
54430;SDS011;40342;52.998;5.862;2022-09-29T05:12:39;3.30;;;2.42;;
54430;SDS011;40342;52.998;5.862;2022-09-29T05:15:04;4.35;;;3.15;;
54430;SDS011;40342;52.998;5.862;2022-09-29T05:17:31;3.72;;;2.78;;
54430;SDS011;40342;52.998;5.862;2022-09-29T05:19:56;7.22;;;2.33;;
54430;SDS011;40342;52.998;5.862;2022-09-29T05:22:22;2.47;;;2.28;;
54430;SDS011;40342;52.998;5.862;2022-09-29T05:24:49;2.30;;;2.20;;
54430;SDS011;40342;52.998;5.862;2022-09-29T05:27:16;2.10;;;1.95;;
54430;SDS011;40342;52.998;5.862;2022-09-29T05:29:41;2.95;;;2.30;;
54430;SDS011;40342;52.998;5.862;2022-09-29T05:32:07;2.55;;;2.35;;
54430;SDS011;40342;52.998;5.862;2022-09-29T05:34:33;3.40;;;2.00;;
54430;SDS011;40342;52.998;5.862;2022-09-29T05:36:58;2.28;;;2.17;;
54430;SDS011;40342;52.998;5.862;2022-09-29T05:39:24;1.77;;;1.67;;
54430;SDS011;40342;52.998;5.862;2022-09-29T05:41:49;2.42;;;2.17;;
54430;SDS011;40342;52.998;5.862;2022-09-29T05:44:15;2.63;;;2.33;;
54430;SDS011;40342;52.998;5.862;2022-09-29T05:46:43;2.47;;;2.38;;
54430;SDS011;40342;52.998;5.862;2022-09-29T05:49:08;3.10;;;2.90;;
54430;SDS011;40342;52.998;5.862;2022-09-29T05:51:34;3.38;;;2.45;;
54430;SDS011;40342;52.998;5.862;2022-09-29T05:54:00;2.75;;;2.40;;
54430;SDS011;40342;52.998;5.862;2022-09-29T05:56:26;4.22;;;3.92;;
54430;SDS011;40342;52.998;5.862;2022-09-29T05:58:52;2.85;;;2.65;;
54430;SDS011;40342;52.998;5.862;2022-09-29T06:01:19;2.78;;;2.58;;
54430;SDS011;40342;52.998;5.862;2022-09-29T06:03:47;5.13;;;2.90;;
54430;SDS011;40342;52.998;5.862;2022-09-29T06:06:17;3.72;;;3.42;;
54430;SDS011;40342;52.998;5.862;2022-09-29T06:08:46;3.00;;;2.80;;
54430;SDS011;40342;52.998;5.862;2022-09-29T06:11:13;3.45;;;3.00;;
54430;SDS011;40342;52.998;5.862;2022-09-29T06:13:41;4.85;;;2.60;;
54430;SDS011;40342;52.998;5.862;2022-09-29T06:16:12;3.05;;;2.75;;
54430;SDS011;40342;52.998;5.862;2022-09-29T06:18:38;3.17;;;2.47;;
54430;SDS011;40342;52.998;5.862;2022-09-29T06:21:10;2.65;;;2.50;;
54430;SDS011;40342;52.998;5.862;2022-09-29T06:23:37;2.53;;;2.28;;
54430;SDS011;40342;52.998;5.862;2022-09-29T06:26:05;13.20;;;2.90;;
54430;SDS011;40342;52.998;5.862;2022-09-29T06:28:33;4.00;;;1.98;;
54430;SDS011;40342;52.998;5.862;2022-09-29T06:31:18;4.22;;;2.95;;
54430;SDS011;40342;52.998;5.862;2022-09-29T06:33:46;6.22;;;3.13;;
54430;SDS011;40342;52.998;5.862;2022-09-29T06:36:16;6.13;;;4.63;;
54430;SDS011;40342;52.998;5.862;2022-09-29T06:39:01;3.30;;;3.00;;
54430;SDS011;40342;52.998;5.862;2022-09-29T06:41:27;4.45;;;2.80;;
54430;SDS011;40342;52.998;5.862;2022-09-29T06:43:54;6.15;;;3.17;;
54430;SDS011;40342;52.998;5.862;2022-09-29T06:46:19;5.07;;;2.50;;
54430;SDS011;40342;52.998;5.862;2022-09-29T06:48:46;4.57;;;2.22;;
54430;SDS011;40342;52.998;5.862;2022-09-29T06:51:12;6.63;;;2.53;;
54430;SDS011;40342;52.998;5.862;2022-09-29T06:53:38;3.50;;;2.95;;
54430;SDS011;40342;52.998;5.862;2022-09-29T06:56:05;4.65;;;4.22;;
54430;SDS011;40342;52.998;5.862;2022-09-29T06:58:32;5.45;;;4.40;;
54430;SDS011;40342;52.998;5.862;2022-09-29T07:00:59;5.68;;;5.00;;
54430;SDS011;40342;52.998;5.862;2022-09-29T07:03:26;6.00;;;5.60;;
54430;SDS011;40342;52.998;5.862;2022-09-29T07:05:52;5.75;;;5.25;;
54430;SDS011;40342;52.998;5.862;2022-09-29T07:08:18;5.18;;;4.78;;
54430;SDS011;40342;52.998;5.862;2022-09-29T07:10:44;8.60;;;5.78;;
54430;SDS011;40342;52.998;5.862;2022-09-29T07:13:10;6.32;;;5.82;;
54430;SDS011;40342;52.998;5.862;2022-09-29T07:15:36;9.25;;;5.97;;
54430;SDS011;40342;52.998;5.862;2022-09-29T07:18:02;7.53;;;6.88;;
54430;SDS011;40342;52.998;5.862;2022-09-29T07:20:28;6.32;;;5.82;;
54430;SDS011;40342;52.998;5.862;2022-09-29T07:22:56;6.60;;;6.05;;
54430;SDS011;40342;52.998;5.862;2022-09-29T07:25:22;6.15;;;5.65;;
54430;SDS011;40342;52.998;5.862;2022-09-29T07:27:48;5.82;;;5.43;;
54430;SDS011;40342;52.998;5.862;2022-09-29T07:30:17;6.25;;;5.75;;
54430;SDS011;40342;52.998;5.862;2022-09-29T07:32:43;6.68;;;6.18;;
54430;SDS011;40342;52.998;5.862;2022-09-29T07:35:10;9.05;;;8.25;;
54430;SDS011;40342;52.998;5.862;2022-09-29T07:37:35;6.72;;;6.13;;
54430;SDS011;40342;52.998;5.862;2022-09-29T07:40:01;7.28;;;6.68;;
54430;SDS011;40342;52.998;5.862;2022-09-29T07:42:27;7.30;;;6.70;;
54430;SDS011;40342;52.998;5.862;2022-09-29T07:44:53;8.50;;;7.32;;
54430;SDS011;40342;52.998;5.862;2022-09-29T07:47:19;8.30;;;7.60;;
54430;SDS011;40342;52.998;5.862;2022-09-29T07:49:45;10.60;;;9.52;;
54430;SDS011;40342;52.998;5.862;2022-09-29T07:52:11;12.23;;;9.88;;
54430;SDS011;40342;52.998;5.862;2022-09-29T07:54:37;15.43;;;14.00;;
54430;SDS011;40342;52.998;5.862;2022-09-29T07:57:03;12.55;;;11.38;;
54430;SDS011;40342;52.998;5.862;2022-09-29T07:59:29;10.45;;;9.65;;
54430;SDS011;40342;52.998;5.862;2022-09-29T08:01:56;12.05;;;10.85;;
54430;SDS011;40342;52.998;5.862;2022-09-29T08:04:21;11.90;;;10.80;;
54430;SDS011;40342;52.998;5.862;2022-09-29T08:06:47;13.38;;;12.07;;
54430;SDS011;40342;52.998;5.862;2022-09-29T08:09:13;13.32;;;11.98;;
54430;SDS011;40342;52.998;5.862;2022-09-29T08:11:40;12.57;;;11.27;;
54430;SDS011;40342;52.998;5.862;2022-09-29T08:14:07;13.18;;;11.98;;
54430;SDS011;40342;52.998;5.862;2022-09-29T08:16:34;13.32;;;12.02;;
54430;SDS011;40342;52.998;5.862;2022-09-29T08:19:00;13.55;;;12.35;;
54430;SDS011;40342;52.998;5.862;2022-09-29T08:21:26;13.07;;;11.80;;
54430;SDS011;40342;52.998;5.862;2022-09-29T08:23:53;13.63;;;12.25;;
54430;SDS011;40342;52.998;5.862;2022-09-29T08:26:26;13.00;;;11.80;;
54430;SDS011;40342;52.998;5.862;2022-09-29T08:28:52;16.95;;;13.32;;
54430;SDS011;40342;52.998;5.862;2022-09-29T08:31:19;15.82;;;14.23;;
54430;SDS011;40342;52.998;5.862;2022-09-29T08:33:49;16.48;;;14.70;;
54430;SDS011;40342;52.998;5.862;2022-09-29T08:36:18;16.88;;;13.70;;
54430;SDS011;40342;52.998;5.862;2022-09-29T08:38:45;17.05;;;15.25;;
54430;SDS011;40342;52.998;5.862;2022-09-29T08:41:31;16.88;;;14.98;;
54430;SDS011;40342;52.998;5.862;2022-09-29T08:52:28;16.67;;;14.98;;
54430;SDS011;40342;52.998;5.862;2022-09-29T08:55:59;16.50;;;14.90;;
54430;SDS011;40342;52.998;5.862;2022-09-29T08:57:58;15.75;;;14.27;;
54430;SDS011;40342;52.998;5.862;2022-09-29T09:00:37;17.10;;;15.50;;
54430;SDS011;40342;52.998;5.862;2022-09-29T09:03:20;17.67;;;15.95;;
54430;SDS011;40342;52.998;5.862;2022-09-29T09:06:13;17.95;;;16.08;;
54430;SDS011;40342;52.998;5.862;2022-09-29T09:14:49;18.35;;;16.60;;
54430;SDS011;40342;52.998;5.862;2022-09-29T09:17:38;18.05;;;16.13;;
54430;SDS011;40342;52.998;5.862;2022-09-29T09:20:31;18.77;;;16.95;;
54430;SDS011;40342;52.998;5.862;2022-09-29T09:23:20;18.50;;;15.55;;
54430;SDS011;40342;52.998;5.862;2022-09-29T09:25:59;17.90;;;15.98;;
54430;SDS011;40342;52.998;5.862;2022-09-29T09:28:32;16.52;;;15.02;;
54430;SDS011;40342;52.998;5.862;2022-09-29T09:31:10;15.65;;;14.07;;
54430;SDS011;40342;52.998;5.862;2022-09-29T09:33:52;13.07;;;11.80;;
54430;SDS011;40342;52.998;5.862;2022-09-29T09:36:34;11.40;;;10.30;;
54430;SDS011;40342;52.998;5.862;2022-09-29T09:39:14;10.10;;;9.20;;
54430;SDS011;40342;52.998;5.862;2022-09-29T09:41:50;10.63;;;9.57;;
54430;SDS011;40342;52.998;5.862;2022-09-29T09:44:24;11.05;;;9.77;;
54430;SDS011;40342;52.998;5.862;2022-09-29T09:47:01;8.18;;;7.38;;
54430;SDS011;40342;52.998;5.862;2022-09-29T09:52:17;6.35;;;5.68;;
54430;SDS011;40342;52.998;5.862;2022-09-29T09:54:50;5.07;;;4.68;;
54430;SDS011;40342;52.998;5.862;2022-09-29T09:59:58;5.28;;;4.78;;
54430;SDS011;40342;52.998;5.862;2022-09-29T10:02:34;5.28;;;4.72;;
54430;SDS011;40342;52.998;5.862;2022-09-29T10:05:10;3.35;;;2.63;;
54430;SDS011;40342;52.998;5.862;2022-09-29T10:07:38;5.60;;;4.45;;
54430;SDS011;40342;52.998;5.862;2022-09-29T10:10:04;4.63;;;4.22;;
54430;SDS011;40342;52.998;5.862;2022-09-29T10:12:42;4.43;;;3.95;;
54430;SDS011;40342;52.998;5.862;2022-09-29T10:15:26;4.47;;;4.07;;
54430;SDS011;40342;52.998;5.862;2022-09-29T10:18:05;3.10;;;2.85;;
54430;SDS011;40342;52.998;5.862;2022-09-29T10:20:51;3.40;;;3.10;;
54430;SDS011;40342;52.998;5.862;2022-09-29T10:31:28;3.78;;;3.47;;
54430;SDS011;40342;52.998;5.862;2022-09-29T10:34:00;3.78;;;2.63;;
54430;SDS011;40342;52.998;5.862;2022-09-29T10:36:54;20.30;;;3.90;;
54430;SDS011;40342;52.998;5.862;2022-09-29T10:39:30;2.10;;;1.52;;
54430;SDS011;40342;52.998;5.862;2022-09-29T10:42:14;2.00;;;1.85;;
54430;SDS011;40342;52.998;5.862;2022-09-29T10:44:40;2.80;;;2.60;;
54430;SDS011;40342;52.998;5.862;2022-09-29T10:47:06;2.90;;;2.70;;
54430;SDS011;40342;52.998;5.862;2022-09-29T10:49:39;3.38;;;2.85;;
54430;SDS011;40342;52.998;5.862;2022-09-29T10:52:05;3.08;;;2.80;;
54430;SDS011;40342;52.998;5.862;2022-09-29T10:54:54;3.10;;;2.40;;
54430;SDS011;40342;52.998;5.862;2022-09-29T10:57:29;2.88;;;2.58;;
54430;SDS011;40342;52.998;5.862;2022-09-29T10:59:56;2.60;;;2.40;;
54430;SDS011;40342;52.998;5.862;2022-09-29T11:04:48;3.03;;;2.30;;
54430;SDS011;40342;52.998;5.862;2022-09-29T11:07:14;3.45;;;3.10;;
54430;SDS011;40342;52.998;5.862;2022-09-29T11:09:41;4.07;;;2.50;;
54430;SDS011;40342;52.998;5.862;2022-09-29T11:14:59;2.20;;;2.00;;
54430;SDS011;40342;52.998;5.862;2022-09-29T11:17:27;2.83;;;1.20;;
54430;SDS011;40342;52.998;5.862;2022-09-29T11:19:55;2.03;;;1.50;;
54430;SDS011;40342;52.998;5.862;2022-09-29T11:34:00;1.38;;;1.27;;
54430;SDS011;40342;52.998;5.862;2022-09-29T11:36:45;1.83;;;1.60;;
54430;SDS011;40342;52.998;5.862;2022-09-29T11:39:43;3.90;;;1.63;;
54430;SDS011;40342;52.998;5.862;2022-09-29T11:45:08;2.15;;;1.30;;
54430;SDS011;40342;52.998;5.862;2022-09-29T11:58:37;1.80;;;0.85;;
54430;SDS011;40342;52.998;5.862;2022-09-29T12:01:29;0.93;;;0.80;;
54430;SDS011;40342;52.998;5.862;2022-09-29T12:07:03;1.30;;;1.20;;
54430;SDS011;40342;52.998;5.862;2022-09-29T12:10:05;2.10;;;1.42;;
54430;SDS011;40342;52.998;5.862;2022-09-29T12:12:40;2.03;;;1.35;;
54430;SDS011;40342;52.998;5.862;2022-09-29T12:18:09;1.95;;;1.30;;
54430;SDS011;40342;52.998;5.862;2022-09-29T12:20:42;1.85;;;1.20;;
54430;SDS011;40342;52.998;5.862;2022-09-29T12:23:12;1.52;;;1.30;;
54430;SDS011;40342;52.998;5.862;2022-09-29T12:25:47;1.33;;;1.15;;
54430;SDS011;40342;52.998;5.862;2022-09-29T12:28:21;1.92;;;0.93;;
54430;SDS011;40342;52.998;5.862;2022-09-29T12:30:52;1.48;;;0.90;;
54430;SDS011;40342;52.998;5.862;2022-09-29T12:33:32;2.05;;;1.00;;
54430;SDS011;40342;52.998;5.862;2022-09-29T12:39:25;1.38;;;0.90;;
54430;SDS011;40342;52.998;5.862;2022-09-29T12:42:13;1.88;;;0.90;;
54430;SDS011;40342;52.998;5.862;2022-09-29T12:45:24;0.85;;;0.80;;
54430;SDS011;40342;52.998;5.862;2022-09-29T12:50:48;1.10;;;1.10;;
54430;SDS011;40342;52.998;5.862;2022-09-29T12:55:53;1.30;;;1.20;;
54430;SDS011;40342;52.998;5.862;2022-09-29T12:58:42;1.45;;;1.35;;
54430;SDS011;40342;52.998;5.862;2022-09-29T13:12:09;2.55;;;1.70;;
54430;SDS011;40342;52.998;5.862;2022-09-29T13:24:05;4.38;;;1.70;;
54430;SDS011;40342;52.998;5.862;2022-09-29T13:29:46;9.50;;;4.63;;
54430;SDS011;40342;52.998;5.862;2022-09-29T13:32:16;6.70;;;2.78;;
54430;SDS011;40342;52.998;5.862;2022-09-29T13:35:01;7.88;;;3.47;;
54430;SDS011;40342;52.998;5.862;2022-09-29T13:37:34;64.28;;;24.73;;
54430;SDS011;40342;52.998;5.862;2022-09-29T13:40:19;38.95;;;17.52;;
54430;SDS011;40342;52.998;5.862;2022-09-29T13:42:47;3.30;;;1.75;;
54430;SDS011;40342;52.998;5.862;2022-09-29T13:47:44;1.70;;;1.30;;
54430;SDS011;40342;52.998;5.862;2022-09-29T13:55:55;1.75;;;1.33;;
54430;SDS011;40342;52.998;5.862;2022-09-29T13:58:35;1.80;;;1.27;;
54430;SDS011;40342;52.998;5.862;2022-09-29T14:01:04;2.28;;;1.30;;
54430;SDS011;40342;52.998;5.862;2022-09-29T14:06:03;2.70;;;1.05;;
54430;SDS011;40342;52.998;5.862;2022-09-29T14:08:34;1.45;;;0.90;;
54430;SDS011;40342;52.998;5.862;2022-09-29T14:13:45;1.85;;;1.23;;
54430;SDS011;40342;52.998;5.862;2022-09-29T14:19:03;1.40;;;1.30;;
54430;SDS011;40342;52.998;5.862;2022-09-29T14:32:53;1.42;;;0.95;;
54430;SDS011;40342;52.998;5.862;2022-09-29T14:40:25;0.70;;;0.70;;
54430;SDS011;40342;52.998;5.862;2022-09-29T14:45:45;5.43;;;0.75;;
54430;SDS011;40342;52.998;5.862;2022-09-29T14:51:28;1.98;;;0.77;;
54430;SDS011;40342;52.998;5.862;2022-09-29T14:54:40;1.85;;;0.80;;
54430;SDS011;40342;52.998;5.862;2022-09-29T15:00:04;1.42;;;1.10;;
54430;SDS011;40342;52.998;5.862;2022-09-29T15:02:35;1.73;;;0.70;;
54430;SDS011;40342;52.998;5.862;2022-09-29T15:07:53;1.10;;;0.50;;
54430;SDS011;40342;52.998;5.862;2022-09-29T15:12:49;2.72;;;0.50;;
54430;SDS011;40342;52.998;5.862;2022-09-29T15:15:34;2.25;;;0.70;;
54430;SDS011;40342;52.998;5.862;2022-09-29T15:18:08;1.73;;;0.52;;
54430;SDS011;40342;52.998;5.862;2022-09-29T15:26:12;0.77;;;0.40;;
54430;SDS011;40342;52.998;5.862;2022-09-29T15:28:39;1.10;;;0.50;;
54430;SDS011;40342;52.998;5.862;2022-09-29T15:31:09;2.17;;;0.50;;
54430;SDS011;40342;52.998;5.862;2022-09-29T15:33:50;4.78;;;0.73;;
54430;SDS011;40342;52.998;5.862;2022-09-29T15:36:17;3.30;;;0.45;;
54430;SDS011;40342;52.998;5.862;2022-09-29T15:38:47;2.05;;;0.47;;
54430;SDS011;40342;52.998;5.862;2022-09-29T15:41:35;3.47;;;0.60;;
54430;SDS011;40342;52.998;5.862;2022-09-29T15:44:22;1.77;;;0.50;;
54430;SDS011;40342;52.998;5.862;2022-09-29T15:46:55;1.27;;;0.40;;
54430;SDS011;40342;52.998;5.862;2022-09-29T15:49:22;1.38;;;0.50;;
54430;SDS011;40342;52.998;5.862;2022-09-29T15:52:02;2.03;;;0.52;;
54430;SDS011;40342;52.998;5.862;2022-09-29T15:56:58;1.38;;;0.60;;
54430;SDS011;40342;52.998;5.862;2022-09-29T15:59:47;2.30;;;2.10;;
54430;SDS011;40342;52.998;5.862;2022-09-29T16:02:30;2.33;;;2.13;;
54430;SDS011;40342;52.998;5.862;2022-09-29T16:05:02;1.38;;;1.27;;
54430;SDS011;40342;52.998;5.862;2022-09-29T16:07:37;0.70;;;0.70;;
54430;SDS011;40342;52.998;5.862;2022-09-29T16:10:10;1.30;;;1.20;;
54430;SDS011;40342;52.998;5.862;2022-09-29T16:12:44;1.00;;;0.80;;
54430;SDS011;40342;52.998;5.862;2022-09-29T16:15:24;1.98;;;0.90;;
54430;SDS011;40342;52.998;5.862;2022-09-29T16:17:56;1.13;;;0.80;;
54430;SDS011;40342;52.998;5.862;2022-09-29T16:20:28;1.35;;;0.68;;
54430;SDS011;40342;52.998;5.862;2022-09-29T16:22:56;1.42;;;1.10;;
54430;SDS011;40342;52.998;5.862;2022-09-29T16:25:39;1.25;;;0.80;;
54430;SDS011;40342;52.998;5.862;2022-09-29T16:28:09;2.40;;;2.20;;
54430;SDS011;40342;52.998;5.862;2022-09-29T16:30:59;3.58;;;2.78;;
54430;SDS011;40342;52.998;5.862;2022-09-29T16:33:27;2.83;;;1.80;;
54430;SDS011;40342;52.998;5.862;2022-09-29T16:40:44;1.45;;;0.80;;
54430;SDS011;40342;52.998;5.862;2022-09-29T16:43:20;2.05;;;0.57;;
54430;SDS011;40342;52.998;5.862;2022-09-29T16:45:51;2.72;;;0.60;;
54430;SDS011;40342;52.998;5.862;2022-09-29T16:48:19;0.63;;;0.30;;
54430;SDS011;40342;52.998;5.862;2022-09-29T16:50:47;2.28;;;0.60;;
54430;SDS011;40342;52.998;5.862;2022-09-29T16:53:20;4.07;;;0.82;;
54430;SDS011;40342;52.998;5.862;2022-09-29T16:56:26;2.22;;;0.50;;
54430;SDS011;40342;52.998;5.862;2022-09-29T16:59:11;1.83;;;0.40;;
54430;SDS011;40342;52.998;5.862;2022-09-29T17:01:40;0.40;;;0.40;;
54430;SDS011;40342;52.998;5.862;2022-09-29T17:04:07;0.88;;;0.45;;
54430;SDS011;40342;52.998;5.862;2022-09-29T17:06:34;1.52;;;0.60;;
54430;SDS011;40342;52.998;5.862;2022-09-29T17:09:00;0.95;;;0.60;;
54430;SDS011;40342;52.998;5.862;2022-09-29T17:11:30;1.35;;;0.47;;
54430;SDS011;40342;52.998;5.862;2022-09-29T17:13:56;3.15;;;0.60;;
54430;SDS011;40342;52.998;5.862;2022-09-29T17:16:22;0.43;;;0.40;;
54430;SDS011;40342;52.998;5.862;2022-09-29T17:18:49;1.27;;;0.40;;
54430;SDS011;40342;52.998;5.862;2022-09-29T17:21:16;1.52;;;0.60;;
54430;SDS011;40342;52.998;5.862;2022-09-29T17:23:42;3.88;;;1.40;;
54430;SDS011;40342;52.998;5.862;2022-09-29T17:26:25;72.53;;;4.72;;
54430;SDS011;40342;52.998;5.862;2022-09-29T17:29:18;51.58;;;3.03;;
54430;SDS011;40342;52.998;5.862;2022-09-29T17:31:46;135.55;;;8.75;;
54430;SDS011;40342;52.998;5.862;2022-09-29T17:34:11;38.70;;;3.75;;
54430;SDS011;40342;52.998;5.862;2022-09-29T17:36:37;69.68;;;4.88;;
54430;SDS011;40342;52.998;5.862;2022-09-29T17:39:03;104.93;;;8.90;;
54430;SDS011;40342;52.998;5.862;2022-09-29T17:41:30;79.50;;;5.43;;
54430;SDS011;40342;52.998;5.862;2022-09-29T17:43:56;38.15;;;3.15;;
54430;SDS011;40342;52.998;5.862;2022-09-29T17:46:22;13.40;;;1.38;;
54430;SDS011;40342;52.998;5.862;2022-09-29T17:48:47;1.00;;;0.30;;
54430;SDS011;40342;52.998;5.862;2022-09-29T17:51:14;2.90;;;0.32;;
54430;SDS011;40342;52.998;5.862;2022-09-29T17:53:42;4.82;;;0.30;;
54430;SDS011;40342;52.998;5.862;2022-09-29T17:56:16;0.50;;;0.20;;
54430;SDS011;40342;52.998;5.862;2022-09-29T17:58:46;1.23;;;0.40;;
54430;SDS011;40342;52.998;5.862;2022-09-29T18:01:13;1.95;;;0.40;;
54430;SDS011;40342;52.998;5.862;2022-09-29T18:03:42;1.92;;;0.50;;
54430;SDS011;40342;52.998;5.862;2022-09-29T18:06:09;1.17;;;0.43;;
54430;SDS011;40342;52.998;5.862;2022-09-29T18:08:49;2.85;;;0.52;;
54430;SDS011;40342;52.998;5.862;2022-09-29T18:11:16;1.25;;;0.40;;
54430;SDS011;40342;52.998;5.862;2022-09-29T18:13:43;9.38;;;0.40;;
54430;SDS011;40342;52.998;5.862;2022-09-29T18:16:10;0.65;;;0.30;;
54430;SDS011;40342;52.998;5.862;2022-09-29T18:18:38;0.73;;;0.40;;
54430;SDS011;40342;52.998;5.862;2022-09-29T18:21:03;1.30;;;0.60;;